createdAt,value
2023-05-11T00:00:08.614Z,0.93
2023-05-11T00:02:36.214Z,0.93
2023-05-11T00:05:02.647Z,0.85
2023-05-11T00:07:28.993Z,1.30
2023-05-11T00:09:55.422Z,1.00
2023-05-11T00:12:21.805Z,1.20
2023-05-11T00:14:48.164Z,1.25
2023-05-11T00:17:14.506Z,1.15
2023-05-11T00:19:40.941Z,1.40
2023-05-11T00:22:07.573Z,1.10
2023-05-11T00:24:33.921Z,1.52
2023-05-11T00:27:00.768Z,1.25
2023-05-11T00:29:27.119Z,1.60
2023-05-11T00:31:53.494Z,1.17
2023-05-11T00:34:19.913Z,1.20
2023-05-11T00:36:46.273Z,1.08
2023-05-11T00:39:13.573Z,1.48
2023-05-11T00:41:39.907Z,1.48
2023-05-11T00:44:06.591Z,1.45
2023-05-11T00:46:33.442Z,1.67
2023-05-11T00:48:59.912Z,1.40
2023-05-11T00:51:27.779Z,1.50
2023-05-11T00:53:54.229Z,1.23
2023-05-11T00:56:21.355Z,1.48
2023-05-11T00:58:48.604Z,1.30
2023-05-11T01:01:17.741Z,1.40
2023-05-11T01:03:46.049Z,1.88
2023-05-11T01:06:39.863Z,1.50
2023-05-11T01:09:15.681Z,1.25
2023-05-11T01:11:48.979Z,1.50
2023-05-11T01:14:32.125Z,1.05
2023-05-11T01:17:05.778Z,1.10
2023-05-11T01:19:46.872Z,1.67
2023-05-11T01:22:33.703Z,1.23
2023-05-11T01:25:25.666Z,1.63
2023-05-11T01:28:23.164Z,1.48
2023-05-11T01:31:02.456Z,1.20
2023-05-11T01:33:33.088Z,1.45
2023-05-11T01:36:10.780Z,1.40
2023-05-11T01:38:45.687Z,1.35
2023-05-11T01:41:17.987Z,1.15
2023-05-11T01:43:47.254Z,1.40
2023-05-11T01:46:15.774Z,1.73
2023-05-11T01:48:46.631Z,1.40
2023-05-11T01:51:15.817Z,1.40
2023-05-11T01:53:44.358Z,1.10
2023-05-11T01:56:11.622Z,2.63
2023-05-11T01:58:41.747Z,2.13
2023-05-11T02:01:10.135Z,1.60
2023-05-11T02:03:38.244Z,1.35
2023-05-11T02:06:06.637Z,1.10
2023-05-11T02:08:35.967Z,1.50
2023-05-11T02:11:04.244Z,1.05
2023-05-11T02:13:34.575Z,1.27
2023-05-11T02:16:01.564Z,1.15
2023-05-11T02:18:29.443Z,1.50
2023-05-11T02:21:00.070Z,1.35
2023-05-11T02:23:27.691Z,1.45
2023-05-11T02:25:55.265Z,1.38
2023-05-11T02:28:22.033Z,1.33
2023-05-11T02:30:52.231Z,1.38
2023-05-11T02:33:24.589Z,1.23
2023-05-11T02:35:55.969Z,1.70
2023-05-11T02:38:33.469Z,1.40
2023-05-11T02:41:05.969Z,1.65
2023-05-11T02:43:36.905Z,2.35
2023-05-11T02:46:06.870Z,1.70
2023-05-11T02:48:40.122Z,1.90
2023-05-11T02:51:09.980Z,1.45
2023-05-11T02:53:45.344Z,2.17
2023-05-11T02:56:12.223Z,1.90
2023-05-11T02:58:39.043Z,1.60
2023-05-11T03:01:17.537Z,2.25
2023-05-11T03:03:44.401Z,2.38
2023-05-11T03:06:10.918Z,1.90
2023-05-11T03:08:37.684Z,1.92
2023-05-11T03:11:05.058Z,1.80
2023-05-11T03:13:32.683Z,2.17
2023-05-11T03:16:02.451Z,2.38
2023-05-11T03:18:31.910Z,2.38
2023-05-11T03:21:00.523Z,1.92
2023-05-11T03:23:27.950Z,2.00
2023-05-11T03:25:56.029Z,1.67
2023-05-11T03:28:24.016Z,2.17
2023-05-11T03:30:58.758Z,2.03
2023-05-11T03:33:25.202Z,1.80
2023-05-11T03:35:53.969Z,1.75
2023-05-11T03:38:23.547Z,1.60
2023-05-11T03:40:53.473Z,1.83
2023-05-11T03:43:21.770Z,1.52
2023-05-11T03:45:55.581Z,1.63
2023-05-11T03:48:23.456Z,2.08
2023-05-11T03:50:51.837Z,1.60
2023-05-11T03:53:18.895Z,1.50
2023-05-11T03:55:45.404Z,2.25
2023-05-11T03:58:11.848Z,2.33
2023-05-11T04:00:39.802Z,1.75
2023-05-11T04:03:07.252Z,2.03
2023-05-11T04:05:33.788Z,3.30
2023-05-11T04:08:03.761Z,2.22
2023-05-11T04:10:30.198Z,1.88
2023-05-11T04:12:56.672Z,1.80
2023-05-11T04:15:23.032Z,2.05
2023-05-11T04:17:49.470Z,1.63
2023-05-11T04:20:16.141Z,2.22
2023-05-11T04:22:43.900Z,2.10
2023-05-11T04:25:10.341Z,1.67
2023-05-11T04:27:37.762Z,1.88
2023-05-11T04:30:04.571Z,1.52
2023-05-11T04:32:31.790Z,2.08
2023-05-11T04:34:58.285Z,2.10
2023-05-11T04:37:26.966Z,2.00
2023-05-11T04:39:53.992Z,1.70
2023-05-11T04:42:20.770Z,1.83
2023-05-11T04:44:54.360Z,1.80
2023-05-11T04:47:21.247Z,2.78
2023-05-11T04:49:48.541Z,1.83
2023-05-11T04:52:15.871Z,1.80
2023-05-11T04:54:45.120Z,2.75
2023-05-11T04:57:11.551Z,1.83
2023-05-11T04:59:38.023Z,2.13
2023-05-11T05:02:04.495Z,2.25
2023-05-11T05:04:30.906Z,2.47
2023-05-11T05:06:57.333Z,2.05
2023-05-11T05:09:23.665Z,2.78
2023-05-11T05:11:50.172Z,3.15
2023-05-11T05:14:16.584Z,2.25
2023-05-11T05:16:43.210Z,3.00
2023-05-11T05:19:10.133Z,2.38
2023-05-11T05:21:37.399Z,3.72
2023-05-11T05:24:04.334Z,2.50
2023-05-11T05:26:30.825Z,2.08
2023-05-11T05:28:57.546Z,3.00
2023-05-11T05:31:24.964Z,2.83
2023-05-11T05:33:52.246Z,2.40
2023-05-11T05:36:18.669Z,3.00
2023-05-11T05:38:45.160Z,2.40
2023-05-11T05:41:11.585Z,3.13
2023-05-11T05:43:40.822Z,2.80
2023-05-11T05:46:07.323Z,2.90
2023-05-11T05:48:33.824Z,3.70
2023-05-11T05:51:00.288Z,3.08
2023-05-11T05:53:27.709Z,3.70
2023-05-11T05:55:54.703Z,3.53
2023-05-11T05:58:21.120Z,3.40
2023-05-11T06:00:47.587Z,3.63
2023-05-11T06:03:14.005Z,3.50
2023-05-11T06:05:40.961Z,3.42
2023-05-11T06:08:25.797Z,3.47
2023-05-11T06:10:52.245Z,3.40
2023-05-11T06:13:18.819Z,3.35
2023-05-11T06:15:45.327Z,3.35
2023-05-11T06:18:19.392Z,2.95
2023-05-11T06:20:46.002Z,3.90
2023-05-11T06:23:14.146Z,2.90
2023-05-11T06:25:42.545Z,3.78
2023-05-11T06:28:09.308Z,4.28
2023-05-11T06:30:36.933Z,4.90
2023-05-11T06:33:06.013Z,3.72
2023-05-11T06:35:32.444Z,4.10
2023-05-11T06:37:59.157Z,3.35
2023-05-11T06:40:25.801Z,4.43
2023-05-11T06:42:52.209Z,3.85
2023-05-11T06:45:18.611Z,4.10
2023-05-11T06:47:45.274Z,3.78
2023-05-11T06:50:11.815Z,5.22
2023-05-11T06:52:38.240Z,3.72
2023-05-11T06:55:05.056Z,3.42
2023-05-11T06:57:31.472Z,4.63
2023-05-11T06:59:57.905Z,4.32
2023-05-11T07:02:24.297Z,5.07
2023-05-11T07:04:50.883Z,5.05
2023-05-11T07:07:17.300Z,5.20
2023-05-11T07:09:43.670Z,4.70
2023-05-11T07:12:10.123Z,4.35
2023-05-11T07:18:01.422Z,5.20
2023-05-11T07:20:28.320Z,5.47
2023-05-11T07:23:01.180Z,4.53
2023-05-11T07:25:28.059Z,4.03
2023-05-11T07:27:54.472Z,5.55
2023-05-11T07:30:21.158Z,4.72
2023-05-11T07:32:48.110Z,5.15
2023-05-11T07:35:17.703Z,4.82
2023-05-11T07:37:44.217Z,5.00
2023-05-11T07:40:11.088Z,4.97
2023-05-11T07:42:37.420Z,5.13
2023-05-11T07:46:07.765Z,4.93
2023-05-11T07:48:34.130Z,4.63
2023-05-11T07:51:01.482Z,4.43
2023-05-11T07:53:27.951Z,3.97
2023-05-11T07:55:54.389Z,4.38
2023-05-11T07:58:20.829Z,4.40
2023-05-11T08:00:47.306Z,3.30
2023-05-11T08:03:14.425Z,4.00
2023-05-11T08:05:40.891Z,3.42
2023-05-11T08:08:07.387Z,5.53
2023-05-11T08:10:34.894Z,4.00
2023-05-11T08:13:01.293Z,4.22
2023-05-11T08:15:28.040Z,3.70
2023-05-11T08:17:54.809Z,3.97
2023-05-11T08:20:21.226Z,4.00
2023-05-11T08:22:47.873Z,2.95
2023-05-11T08:25:14.366Z,3.15
2023-05-11T08:27:40.799Z,3.65
2023-05-11T08:30:09.496Z,2.80
2023-05-11T08:32:54.515Z,2.67
2023-05-11T08:35:24.774Z,2.55
2023-05-11T08:37:51.188Z,2.50
2023-05-11T08:40:18.901Z,3.13
2023-05-11T08:42:46.830Z,2.15
2023-05-11T08:45:13.548Z,2.70
2023-05-11T08:47:40.143Z,2.58
2023-05-11T08:50:07.546Z,3.00
2023-05-11T08:52:34.398Z,3.20
2023-05-11T08:55:00.979Z,2.90
2023-05-11T08:57:30.729Z,3.15
2023-05-11T08:59:58.031Z,3.47
2023-05-11T09:02:25.326Z,3.47
2023-05-11T09:04:52.391Z,3.78
2023-05-11T09:07:19.633Z,3.45
2023-05-11T09:09:47.518Z,2.55
2023-05-11T09:12:14.286Z,3.40
2023-05-11T09:14:40.792Z,2.90
2023-05-11T09:17:07.332Z,3.13
2023-05-11T09:19:33.901Z,3.45
2023-05-11T09:22:00.502Z,3.05
2023-05-11T09:24:27.795Z,3.78
2023-05-11T09:27:10.252Z,3.35
2023-05-11T09:29:36.922Z,3.30
2023-05-11T09:32:03.979Z,4.28
2023-05-11T09:34:30.398Z,3.58
2023-05-11T09:36:57.201Z,4.18
2023-05-11T09:39:37.836Z,3.90
2023-05-11T09:42:13.184Z,3.53
2023-05-11T09:44:41.525Z,3.42
2023-05-11T09:47:13.063Z,3.40
2023-05-11T09:49:43.144Z,3.22
2023-05-11T09:52:11.406Z,4.60
2023-05-11T09:54:46.244Z,4.43
2023-05-11T09:57:29.755Z,4.18
2023-05-11T09:59:58.059Z,4.47
2023-05-11T10:02:30.021Z,4.15
2023-05-11T10:04:58.321Z,4.15
2023-05-11T10:07:33.153Z,4.38
2023-05-11T10:10:05.267Z,4.10
2023-05-11T10:12:38.198Z,4.50
2023-05-11T10:17:36.781Z,4.38
2023-05-11T10:20:05.100Z,4.68
2023-05-11T10:22:31.915Z,4.28
2023-05-11T10:24:59.628Z,4.30
2023-05-11T10:27:27.999Z,4.20
2023-05-11T10:29:54.594Z,4.18
2023-05-11T10:32:21.577Z,4.72
2023-05-11T10:34:48.480Z,3.20
2023-05-11T10:37:15.571Z,4.03
2023-05-11T10:39:44.074Z,3.92
2023-05-11T10:42:29.172Z,3.65
2023-05-11T10:45:24.131Z,3.50
2023-05-11T10:48:11.858Z,3.70
2023-05-11T10:50:52.079Z,2.83
2023-05-11T10:53:24.302Z,3.67
2023-05-11T10:55:59.356Z,4.00
2023-05-11T10:59:03.186Z,2.88
2023-05-11T11:01:40.504Z,2.70
2023-05-11T11:04:12.229Z,3.28
2023-05-11T11:06:42.228Z,2.90
2023-05-11T11:09:13.341Z,2.83
2023-05-11T11:11:42.395Z,3.63
2023-05-11T11:14:10.243Z,3.42
2023-05-11T11:16:37.838Z,3.33
2023-05-11T11:19:29.488Z,3.33
2023-05-11T11:22:05.535Z,3.22
2023-05-11T11:24:40.924Z,3.15
2023-05-11T11:27:09.067Z,2.90
2023-05-11T11:29:36.866Z,3.67
2023-05-11T11:32:21.715Z,3.03
2023-05-11T11:34:48.893Z,3.72
2023-05-11T11:37:16.555Z,3.92
2023-05-11T11:39:42.994Z,3.95
2023-05-11T11:42:11.365Z,4.10
2023-05-11T11:44:39.389Z,3.70
2023-05-11T11:47:15.624Z,3.35
2023-05-11T11:49:44.434Z,3.75
2023-05-11T11:52:32.226Z,4.35
2023-05-11T11:55:00.163Z,3.40
2023-05-11T11:57:29.625Z,4.35
2023-05-11T11:59:56.409Z,4.53
2023-05-11T12:02:23.347Z,3.95
2023-05-11T12:04:56.074Z,4.22
2023-05-11T12:07:24.715Z,4.35
2023-05-11T12:09:52.766Z,4.20
2023-05-11T12:12:20.789Z,3.70
2023-05-11T12:14:50.921Z,3.80
2023-05-11T12:17:25.770Z,6.43
2023-05-11T12:19:52.331Z,5.43
2023-05-11T12:22:23.768Z,5.25
2023-05-11T12:24:50.582Z,5.38
2023-05-11T12:27:18.879Z,5.90
2023-05-11T12:29:50.038Z,5.13
2023-05-11T12:32:29.218Z,5.78
2023-05-11T12:35:01.294Z,5.35
2023-05-11T12:37:29.378Z,6.10
2023-05-11T12:39:57.629Z,5.82
2023-05-11T12:42:24.336Z,5.43
2023-05-11T12:44:51.492Z,5.18
2023-05-11T12:47:18.180Z,6.18
2023-05-11T12:49:44.884Z,5.30
2023-05-11T12:52:13.863Z,4.85
2023-05-11T12:54:51.130Z,5.47
2023-05-11T12:57:26.357Z,5.32
2023-05-11T13:00:25.573Z,6.97
2023-05-11T13:02:54.056Z,5.85
2023-05-11T13:05:26.303Z,6.47
2023-05-11T13:07:59.587Z,7.60
2023-05-11T13:10:29.390Z,7.70
2023-05-11T13:12:56.331Z,6.35
2023-05-11T13:15:25.053Z,7.65
2023-05-11T13:17:59.273Z,8.13
2023-05-11T13:20:32.261Z,7.82
2023-05-11T13:23:10.423Z,9.57
2023-05-11T13:25:45.739Z,6.97
2023-05-11T13:28:14.457Z,8.38
2023-05-11T13:30:41.306Z,9.40
2023-05-11T13:33:07.834Z,8.55
2023-05-11T13:35:38.988Z,7.95
2023-05-11T13:38:05.761Z,7.93
2023-05-11T13:40:32.361Z,7.82
2023-05-11T13:42:58.789Z,7.40
2023-05-11T13:45:25.311Z,8.30
2023-05-11T13:47:52.326Z,7.40
2023-05-11T13:50:18.749Z,8.18
2023-05-11T13:52:45.157Z,8.07
2023-05-11T13:55:11.629Z,8.75
2023-05-11T13:57:38.108Z,8.57
2023-05-11T14:00:05.418Z,8.57
2023-05-11T14:02:38.321Z,8.73
2023-05-11T14:05:05.109Z,8.80
2023-05-11T14:07:45.739Z,9.00
2023-05-11T14:10:14.053Z,9.20
2023-05-11T14:12:41.085Z,8.05
2023-05-11T14:15:08.352Z,8.57
2023-05-11T14:17:34.888Z,10.10
2023-05-11T14:20:01.501Z,9.25
2023-05-11T14:22:30.548Z,8.05
2023-05-11T14:24:56.929Z,7.60
2023-05-11T14:27:23.725Z,7.45
2023-05-11T14:29:52.125Z,7.82
2023-05-11T14:32:19.312Z,7.30
2023-05-11T14:34:46.215Z,8.45
2023-05-11T14:37:13.137Z,8.85
2023-05-11T14:39:40.978Z,8.77
2023-05-11T14:42:07.774Z,8.50
2023-05-11T14:44:34.200Z,8.95
2023-05-11T14:47:00.661Z,9.02
2023-05-11T14:49:27.159Z,8.23
2023-05-11T14:51:53.509Z,8.95
2023-05-11T14:54:19.958Z,10.18
2023-05-11T14:56:51.251Z,7.57
2023-05-11T14:59:17.701Z,8.77
2023-05-11T15:01:44.127Z,9.32
2023-05-11T15:04:10.667Z,8.57
2023-05-11T15:06:37.445Z,8.35
2023-05-11T15:09:04.151Z,6.22
2023-05-11T15:11:30.600Z,7.00
2023-05-11T15:13:57.052Z,7.13
2023-05-11T15:16:23.481Z,7.45
2023-05-11T15:18:50.024Z,7.40
2023-05-11T15:21:16.522Z,8.15
2023-05-11T15:23:42.994Z,6.97
2023-05-11T15:26:09.852Z,6.85
2023-05-11T15:28:36.272Z,7.63
2023-05-11T15:31:02.658Z,8.30
2023-05-11T15:33:29.260Z,8.13
2023-05-11T15:35:55.750Z,8.93
2023-05-11T15:38:22.242Z,6.68
2023-05-11T15:40:48.783Z,8.70
2023-05-11T15:43:15.717Z,8.43
2023-05-11T15:45:42.195Z,7.38
2023-05-11T15:48:08.770Z,7.97
2023-05-11T15:50:35.935Z,7.03
2023-05-11T15:53:02.617Z,7.38
2023-05-11T15:55:29.097Z,7.43
2023-05-11T15:57:55.618Z,8.55
2023-05-11T16:00:22.164Z,7.85
2023-05-11T16:02:49.328Z,8.05
2023-05-11T16:05:15.954Z,7.93
2023-05-11T16:07:42.478Z,5.85
2023-05-11T16:10:09.282Z,8.20
2023-05-11T16:12:35.667Z,7.25
2023-05-11T16:15:02.080Z,7.07
2023-05-11T16:17:28.512Z,7.30
2023-05-11T16:19:55.058Z,6.93
2023-05-11T16:22:22.316Z,5.72
2023-05-11T16:24:48.685Z,7.93
2023-05-11T16:27:15.370Z,7.05
2023-05-11T16:29:41.761Z,7.47
2023-05-11T16:32:08.212Z,8.65
2023-05-11T16:34:35.219Z,7.47
2023-05-11T16:37:01.785Z,7.28
2023-05-11T16:39:28.200Z,8.10
2023-05-11T16:41:54.787Z,6.57
2023-05-11T16:44:21.226Z,7.05
2023-05-11T16:46:47.856Z,7.53
2023-05-11T16:49:14.335Z,6.82
2023-05-11T16:51:40.792Z,5.90
2023-05-11T16:54:07.452Z,5.57
2023-05-11T16:56:33.931Z,5.50
2023-05-11T16:59:00.338Z,5.40
2023-05-11T17:01:27.007Z,4.78
2023-05-11T17:03:53.724Z,5.35
2023-05-11T17:06:23.681Z,5.63
2023-05-11T17:08:50.461Z,5.78
2023-05-11T17:11:17.057Z,5.50
2023-05-11T17:13:43.472Z,6.57
2023-05-11T17:16:09.924Z,6.68
2023-05-11T17:18:36.409Z,5.80
2023-05-11T17:21:02.899Z,6.80
2023-05-11T17:23:29.262Z,4.85
2023-05-11T17:25:55.690Z,6.82
2023-05-11T17:28:22.300Z,6.32
2023-05-11T17:30:52.644Z,5.82
2023-05-11T17:33:19.685Z,6.75
2023-05-11T17:35:46.344Z,5.97
2023-05-11T17:38:12.752Z,6.15
2023-05-11T17:40:39.207Z,5.65
2023-05-11T17:43:05.644Z,7.10
2023-05-11T17:45:32.098Z,6.60
2023-05-11T17:47:58.501Z,6.43
2023-05-11T17:50:25.138Z,5.93
2023-05-11T17:52:51.571Z,6.53
2023-05-11T17:55:19.030Z,7.15
2023-05-11T17:57:45.715Z,7.38
2023-05-11T18:00:12.649Z,6.38
2023-05-11T18:02:39.262Z,6.68
2023-05-11T18:05:06.793Z,7.05
2023-05-11T18:07:33.219Z,6.60
2023-05-11T18:09:59.963Z,7.13
2023-05-11T18:12:26.510Z,7.30
2023-05-11T18:14:52.905Z,8.00
2023-05-11T18:17:19.283Z,5.85
2023-05-11T18:19:45.686Z,7.07
2023-05-11T18:22:12.271Z,7.10
2023-05-11T18:24:38.644Z,6.57
2023-05-11T18:27:05.282Z,6.60
2023-05-11T18:29:31.687Z,6.15
2023-05-11T18:31:58.186Z,6.72
2023-05-11T18:34:24.618Z,6.57
2023-05-11T18:36:51.129Z,7.47
2023-05-11T18:39:17.678Z,7.90
2023-05-11T18:41:44.077Z,7.75
2023-05-11T18:44:10.688Z,7.10
2023-05-11T18:46:37.178Z,6.32
2023-05-11T18:49:03.848Z,7.68
2023-05-11T18:51:30.292Z,6.35
2023-05-11T18:53:56.760Z,7.72
2023-05-11T18:56:23.231Z,8.20
2023-05-11T18:58:50.324Z,6.43
2023-05-11T19:01:17.993Z,7.43
2023-05-11T19:03:44.936Z,7.55
2023-05-11T19:06:11.804Z,7.97
2023-05-11T19:08:38.262Z,7.50
2023-05-11T19:11:09.794Z,7.63
2023-05-11T19:13:36.761Z,7.70
2023-05-11T19:16:04.286Z,8.65
2023-05-11T19:18:32.175Z,10.15
2023-05-11T19:20:58.645Z,8.82
2023-05-11T19:23:25.262Z,8.88
2023-05-11T19:25:51.723Z,10.07
2023-05-11T19:28:18.178Z,7.57
2023-05-11T19:30:44.589Z,9.32
2023-05-11T19:33:11.635Z,8.75
2023-05-11T19:35:38.436Z,8.43
2023-05-11T19:38:06.207Z,8.63
2023-05-11T19:43:06.018Z,7.43
2023-05-11T19:45:33.121Z,8.45
2023-05-11T19:47:59.905Z,8.43
2023-05-11T19:50:27.565Z,8.27
2023-05-11T19:52:54.511Z,8.52
2023-05-11T19:55:21.343Z,8.77
2023-05-11T19:57:48.272Z,7.90
2023-05-11T20:00:17.973Z,10.00
2023-05-11T20:02:44.964Z,8.98
2023-05-11T20:05:11.417Z,9.65
2023-05-11T20:07:38.754Z,9.70
2023-05-11T20:10:05.681Z,8.80
2023-05-11T20:12:32.068Z,8.75
2023-05-11T20:14:58.476Z,9.40
2023-05-11T20:17:24.901Z,9.15
2023-05-11T20:19:51.340Z,9.45
2023-05-11T20:22:17.858Z,9.30
2023-05-11T20:24:44.224Z,8.50
2023-05-11T20:27:11.224Z,9.13
2023-05-11T20:29:40.106Z,8.25
2023-05-11T20:32:06.925Z,9.45
2023-05-11T20:34:33.508Z,10.45
2023-05-11T20:36:59.929Z,9.63
2023-05-11T20:39:28.120Z,9.52
2023-05-11T20:41:54.572Z,10.05
2023-05-11T20:44:21.322Z,9.07
2023-05-11T20:46:47.744Z,10.88
2023-05-11T20:49:22.148Z,10.25
2023-05-11T20:51:54.131Z,12.27
2023-05-11T20:54:22.416Z,12.43
2023-05-11T20:56:49.675Z,12.35
2023-05-11T21:01:45.607Z,11.82
2023-05-11T21:04:12.004Z,11.07
2023-05-11T21:06:39.600Z,10.77
2023-05-11T21:09:06.317Z,15.93
2023-05-11T21:11:32.700Z,10.75
2023-05-11T21:13:59.048Z,11.52
2023-05-11T21:16:25.497Z,12.13
2023-05-11T21:18:53.313Z,9.95
2023-05-11T21:21:19.870Z,10.38
2023-05-11T21:23:46.227Z,12.73
2023-05-11T21:26:12.652Z,12.88
2023-05-11T21:28:40.435Z,12.85
2023-05-11T21:31:07.370Z,11.88
2023-05-11T21:33:34.632Z,10.98
2023-05-11T21:36:01.074Z,10.13
2023-05-11T21:38:27.575Z,11.20
2023-05-11T21:40:55.025Z,9.27
2023-05-11T21:43:21.991Z,9.00
2023-05-11T21:45:49.827Z,8.75
2023-05-11T21:48:16.841Z,8.27
2023-05-11T21:50:43.772Z,8.20
2023-05-11T21:53:10.720Z,7.90
2023-05-11T21:55:37.191Z,7.07
2023-05-11T21:58:03.541Z,6.25
2023-05-11T22:00:30.501Z,7.65
2023-05-11T22:02:57.053Z,6.30
2023-05-11T22:05:23.560Z,6.10
2023-05-11T22:07:52.395Z,6.20
2023-05-11T22:10:21.037Z,5.38
2023-05-11T22:12:47.551Z,5.03
2023-05-11T22:15:14.204Z,5.13
2023-05-11T22:17:40.643Z,5.20
2023-05-11T22:20:08.167Z,5.43
2023-05-11T22:22:35.574Z,4.07
2023-05-11T22:25:02.288Z,4.63
2023-05-11T22:27:29.686Z,4.68
2023-05-11T22:29:56.208Z,4.47
2023-05-11T22:32:22.695Z,4.72
2023-05-11T22:34:59.608Z,4.50
2023-05-11T22:37:26.809Z,4.45
2023-05-11T22:39:54.063Z,4.55
2023-05-11T22:42:21.780Z,4.85
2023-05-11T22:44:48.444Z,5.95
2023-05-11T22:47:14.850Z,5.65
2023-05-11T22:49:41.628Z,5.53
2023-05-11T22:52:08.238Z,4.97
2023-05-11T22:54:36.545Z,4.47
2023-05-11T22:57:03.507Z,4.72
2023-05-11T22:59:34.171Z,5.25
2023-05-11T23:02:04.388Z,5.47
2023-05-11T23:04:34.555Z,6.07
2023-05-11T23:07:01.025Z,6.15
2023-05-11T23:09:27.526Z,5.85
2023-05-11T23:11:54.270Z,6.22
2023-05-11T23:14:20.946Z,5.65
2023-05-11T23:16:47.463Z,6.82
2023-05-11T23:19:13.979Z,7.00
2023-05-11T23:21:40.428Z,6.95
2023-05-11T23:24:06.945Z,7.13
2023-05-11T23:26:33.951Z,6.25
2023-05-11T23:29:00.469Z,5.95
2023-05-11T23:31:28.411Z,6.07
2023-05-11T23:33:55.169Z,5.90
2023-05-11T23:36:21.633Z,6.57
2023-05-11T23:38:48.004Z,5.97
2023-05-11T23:41:14.543Z,6.68
2023-05-11T23:43:41.132Z,7.25
2023-05-11T23:46:07.559Z,7.45
2023-05-11T23:48:34.039Z,6.93
2023-05-11T23:51:00.475Z,8.00
2023-05-11T23:53:26.934Z,7.75
2023-05-11T23:55:53.363Z,6.90
2023-05-11T23:58:20.053Z,6.53
